createdAt,value
2022-12-09T00:01:34.403Z,50.57
2022-12-09T00:04:02.981Z,46.63
2022-12-09T00:06:32.298Z,43.97
2022-12-09T00:09:01.250Z,44.20
2022-12-09T00:11:30.636Z,45.53
2022-12-09T00:14:01.526Z,50.63
2022-12-09T00:16:30.412Z,45.47
2022-12-09T00:18:59.293Z,67.70
2022-12-09T00:21:29.723Z,69.80
2022-12-09T00:24:00.286Z,59.30
2022-12-09T00:26:29.601Z,49.70
2022-12-09T00:29:00.231Z,57.37
2022-12-09T00:31:31.138Z,52.17
2022-12-09T00:34:02.040Z,48.50
2022-12-09T00:36:31.689Z,45.77
2022-12-09T00:39:01.391Z,46.83
2022-12-09T00:41:30.268Z,40.73
2022-12-09T00:44:00.526Z,43.10
2022-12-09T00:46:29.060Z,45.97
2022-12-09T00:48:58.109Z,44.77
2022-12-09T00:51:27.130Z,42.13
2022-12-09T00:53:56.329Z,44.03
2022-12-09T00:56:26.966Z,43.83
2022-12-09T00:58:56.058Z,46.23
2022-12-09T01:01:26.890Z,40.93
2022-12-09T01:03:55.755Z,42.47
2022-12-09T01:06:26.336Z,41.57
2022-12-09T01:08:55.371Z,44.37
2022-12-09T01:11:26.470Z,45.13
2022-12-09T01:13:57.686Z,43.93
2022-12-09T01:16:29.869Z,44.13
2022-12-09T01:19:00.904Z,45.50
2022-12-09T01:21:30.527Z,42.50
2022-12-09T01:23:58.892Z,45.00
2022-12-09T01:26:27.406Z,44.40
2022-12-09T01:28:57.619Z,43.63
2022-12-09T01:31:28.047Z,42.93
2022-12-09T01:33:57.519Z,46.37
2022-12-09T01:36:28.059Z,41.87
2022-12-09T01:38:58.274Z,42.10
2022-12-09T01:41:27.660Z,44.13
2022-12-09T01:44:17.018Z,46.20
2022-12-09T01:46:47.666Z,45.63
2022-12-09T01:49:22.212Z,45.50
2022-12-09T01:51:57.630Z,44.30
2022-12-09T01:54:26.210Z,46.37
2022-12-09T01:56:56.151Z,45.00
2022-12-09T01:59:26.587Z,41.23
2022-12-09T02:02:00.044Z,42.93
2022-12-09T02:04:32.990Z,40.83
2022-12-09T02:07:05.205Z,40.47
2022-12-09T02:09:36.964Z,43.77
2022-12-09T02:12:13.288Z,43.73
2022-12-09T02:14:44.246Z,44.10
2022-12-09T02:17:26.946Z,46.13
2022-12-09T02:20:04.464Z,43.97
2022-12-09T02:22:38.525Z,43.10
2022-12-09T02:25:16.001Z,45.67
2022-12-09T02:27:50.389Z,45.00
2022-12-09T02:30:21.983Z,46.03
2022-12-09T02:33:22.898Z,38.63
2022-12-09T02:35:56.794Z,43.10
2022-12-09T02:38:28.969Z,40.90
2022-12-09T02:41:03.600Z,40.57
2022-12-09T02:43:35.732Z,42.33
2022-12-09T02:46:06.619Z,43.07
2022-12-09T02:48:38.768Z,41.80
2022-12-09T02:51:13.667Z,44.87
2022-12-09T02:53:43.950Z,39.17
2022-12-09T02:56:16.289Z,42.53
2022-12-09T02:58:44.706Z,41.53
2022-12-09T03:01:23.104Z,43.63
2022-12-09T03:03:54.963Z,41.93
2022-12-09T03:06:29.138Z,43.00
2022-12-09T03:09:04.076Z,42.47
2022-12-09T03:11:34.378Z,41.77
2022-12-09T03:14:08.808Z,44.20
2022-12-09T03:16:41.698Z,43.10
2022-12-09T03:19:15.266Z,40.77
2022-12-09T03:21:47.522Z,40.73
2022-12-09T03:24:21.591Z,45.43
2022-12-09T03:26:52.602Z,44.83
2022-12-09T03:29:24.427Z,42.57
2022-12-09T03:31:56.425Z,45.50
2022-12-09T03:34:29.746Z,41.93
2022-12-09T03:37:00.700Z,45.13
2022-12-09T03:39:32.984Z,43.43
2022-12-09T03:42:05.796Z,46.37
2022-12-09T03:44:39.682Z,42.23
2022-12-09T03:47:10.615Z,39.27
2022-12-09T03:49:40.364Z,43.20
2022-12-09T03:52:17.374Z,39.43
2022-12-09T03:54:47.884Z,39.73
2022-12-09T03:57:19.491Z,37.57
2022-12-09T03:59:54.157Z,44.87
2022-12-09T04:02:23.513Z,41.03
2022-12-09T04:04:53.240Z,42.73
2022-12-09T04:07:23.471Z,41.57
2022-12-09T04:09:52.091Z,41.03
2022-12-09T04:12:20.540Z,43.90
2022-12-09T04:14:49.134Z,41.77
2022-12-09T04:17:18.147Z,41.53
2022-12-09T04:19:46.703Z,41.97
2022-12-09T04:22:16.348Z,44.17
2022-12-09T04:24:46.264Z,41.33
2022-12-09T04:27:14.705Z,44.03
2022-12-09T04:29:43.412Z,41.83
2022-12-09T04:32:12.008Z,40.43
2022-12-09T04:34:40.849Z,45.27
2022-12-09T04:37:09.336Z,48.37
2022-12-09T04:39:38.000Z,45.50
2022-12-09T04:42:08.087Z,48.60
2022-12-09T04:44:36.518Z,44.57
2022-12-09T04:47:05.872Z,39.87
2022-12-09T04:49:34.470Z,33.80
2022-12-09T04:52:03.026Z,39.60
2022-12-09T04:54:33.165Z,46.97
2022-12-09T04:57:01.900Z,46.37
2022-12-09T04:59:37.881Z,43.90
2022-12-09T05:02:06.478Z,45.63
2022-12-09T05:04:35.288Z,46.90
2022-12-09T05:07:04.004Z,42.03
2022-12-09T05:09:34.473Z,41.80
2022-12-09T05:12:03.531Z,43.97
2022-12-09T05:14:36.909Z,40.67
2022-12-09T05:17:07.395Z,40.20
2022-12-09T05:19:36.178Z,39.90
2022-12-09T05:22:04.837Z,38.80
2022-12-09T05:24:47.453Z,39.40
2022-12-09T05:27:16.771Z,42.27
2022-12-09T05:29:47.578Z,43.00
2022-12-09T05:32:16.633Z,41.03
2022-12-09T05:34:45.393Z,40.17
2022-12-09T05:37:16.172Z,42.37
2022-12-09T05:39:45.297Z,42.77
2022-12-09T05:42:13.921Z,42.33
2022-12-09T05:44:42.290Z,41.77
2022-12-09T05:47:12.260Z,40.10
2022-12-09T05:49:41.495Z,43.10
2022-12-09T05:52:14.495Z,41.83
2022-12-09T05:54:46.010Z,40.27
2022-12-09T05:57:14.531Z,40.40
2022-12-09T06:00:29.767Z,39.43
2022-12-09T06:03:00.145Z,47.97
2022-12-09T06:05:29.178Z,53.70
2022-12-09T06:08:05.278Z,61.43
2022-12-09T06:10:35.746Z,53.87
2022-12-09T06:13:04.412Z,51.93
2022-12-09T06:15:34.432Z,47.87
2022-12-09T06:18:04.864Z,45.00
2022-12-09T06:20:33.712Z,42.73
2022-12-09T06:23:02.476Z,40.13
2022-12-09T06:25:30.981Z,39.90
2022-12-09T06:27:59.598Z,42.17
2022-12-09T06:30:28.507Z,39.57
2022-12-09T06:32:57.124Z,38.63
2022-12-09T06:35:27.792Z,37.50
2022-12-09T06:37:56.429Z,39.53
2022-12-09T06:40:25.415Z,37.97
2022-12-09T06:42:54.886Z,34.40
2022-12-09T06:45:24.172Z,35.43
2022-12-09T06:47:52.949Z,38.27
2022-12-09T06:50:22.093Z,37.13
2022-12-09T06:52:52.663Z,37.97
2022-12-09T06:55:21.059Z,37.47
2022-12-09T06:57:49.834Z,38.43
2022-12-09T07:00:20.811Z,39.40
2022-12-09T07:02:49.429Z,35.53
2022-12-09T07:05:19.140Z,37.80
2022-12-09T07:07:53.442Z,37.20
2022-12-09T07:10:22.404Z,39.30
2022-12-09T07:12:51.334Z,37.97
2022-12-09T07:15:20.516Z,39.63
2022-12-09T07:17:49.712Z,40.47
2022-12-09T07:20:18.763Z,39.00
2022-12-09T07:22:47.818Z,35.83
2022-12-09T07:25:18.153Z,31.30
2022-12-09T07:27:47.103Z,35.70
2022-12-09T07:30:16.247Z,37.57
2022-12-09T07:32:45.748Z,33.50
2022-12-09T07:35:16.618Z,36.60
2022-12-09T07:37:45.765Z,33.60
2022-12-09T07:40:14.419Z,35.60
2022-12-09T07:42:44.636Z,34.70
2022-12-09T07:45:14.343Z,36.40
2022-12-09T07:47:44.019Z,40.73
2022-12-09T07:50:16.152Z,37.20
2022-12-09T07:52:45.231Z,36.33
2022-12-09T07:55:14.591Z,38.80
2022-12-09T07:57:44.898Z,36.43
2022-12-09T08:00:16.565Z,37.13
2022-12-09T08:02:45.076Z,37.13
2022-12-09T08:05:14.688Z,38.43
2022-12-09T08:07:46.469Z,34.87
2022-12-09T08:10:15.605Z,39.10
2022-12-09T08:12:50.613Z,38.87
2022-12-09T08:15:20.812Z,43.80
2022-12-09T08:17:50.191Z,40.77
2022-12-09T08:20:21.427Z,39.97
2022-12-09T08:22:54.380Z,36.67
2022-12-09T08:25:23.784Z,37.93
2022-12-09T08:27:54.922Z,32.53
2022-12-09T08:30:23.542Z,33.17
2022-12-09T08:32:52.592Z,37.70
2022-12-09T08:35:21.763Z,41.50
2022-12-09T08:37:51.536Z,37.80
2022-12-09T08:40:21.058Z,38.00
2022-12-09T08:42:50.688Z,39.87
2022-12-09T08:45:21.315Z,39.20
2022-12-09T08:47:50.209Z,39.17
2022-12-09T08:50:19.872Z,40.10
2022-12-09T08:52:48.489Z,38.63
2022-12-09T08:55:17.139Z,40.27
2022-12-09T08:57:45.847Z,38.63
2022-12-09T09:00:16.090Z,37.00
2022-12-09T09:02:46.620Z,36.67
2022-12-09T09:05:15.603Z,37.43
2022-12-09T09:07:44.847Z,38.43
2022-12-09T09:10:14.616Z,36.87
2022-12-09T09:12:44.326Z,37.13
2022-12-09T09:15:14.394Z,36.60
2022-12-09T09:17:49.818Z,33.83
2022-12-09T09:20:21.738Z,33.67
2022-12-09T09:22:51.039Z,40.27
2022-12-09T09:25:19.880Z,36.90
2022-12-09T09:27:49.816Z,36.23
2022-12-09T09:30:19.109Z,33.17
2022-12-09T09:32:48.058Z,32.30
2022-12-09T09:35:17.256Z,33.90
2022-12-09T09:37:49.501Z,33.07
2022-12-09T09:40:24.227Z,35.13
2022-12-09T09:42:55.041Z,34.57
2022-12-09T09:45:25.616Z,36.63
2022-12-09T09:47:58.541Z,35.00
2022-12-09T09:50:32.806Z,34.50
2022-12-09T09:53:13.425Z,32.63
2022-12-09T09:55:48.360Z,33.50
2022-12-09T09:58:23.905Z,33.33
2022-12-09T10:00:59.300Z,31.33
2022-12-09T10:03:39.788Z,30.83
2022-12-09T10:06:19.173Z,31.10
2022-12-09T10:08:59.500Z,31.00
2022-12-09T10:11:33.521Z,30.27
2022-12-09T10:14:16.125Z,28.90
2022-12-09T10:16:49.683Z,30.80
2022-12-09T10:19:27.653Z,29.70
2022-12-09T10:21:58.137Z,31.43
2022-12-09T10:24:40.562Z,37.80
2022-12-09T10:27:19.909Z,36.40
2022-12-09T10:30:03.619Z,31.10
2022-12-09T10:32:35.000Z,29.77
2022-12-09T10:35:14.360Z,29.03
2022-12-09T10:37:45.269Z,28.43
2022-12-09T10:40:27.032Z,28.93
2022-12-09T10:43:14.526Z,30.33
2022-12-09T10:48:43.232Z,30.23
2022-12-09T10:51:16.649Z,33.37
2022-12-09T10:53:56.082Z,29.87
2022-12-09T10:56:29.856Z,33.20
2022-12-09T10:59:11.644Z,33.77
2022-12-09T11:01:57.658Z,26.87
2022-12-09T11:04:28.820Z,28.17
2022-12-09T11:07:05.202Z,27.40
2022-12-09T11:09:36.739Z,21.17
2022-12-09T11:12:10.958Z,21.00
2022-12-09T11:14:43.405Z,21.23
2022-12-09T11:17:17.841Z,20.33
2022-12-09T11:19:49.738Z,22.47
2022-12-09T11:22:31.981Z,24.73
2022-12-09T11:25:23.599Z,26.33
2022-12-09T11:27:56.155Z,28.70
2022-12-09T11:30:29.842Z,27.63
2022-12-09T11:33:07.883Z,28.47
2022-12-09T11:35:52.735Z,26.53
2022-12-09T11:38:31.952Z,27.63
2022-12-09T11:41:07.876Z,27.20
2022-12-09T11:43:42.553Z,26.13
2022-12-09T11:46:21.440Z,24.67
2022-12-09T11:48:58.479Z,25.53
2022-12-09T11:51:30.912Z,25.90
2022-12-09T11:54:04.288Z,25.40
2022-12-09T11:56:36.377Z,23.77
2022-12-09T11:59:13.183Z,23.30
2022-12-09T12:01:51.842Z,23.40
2022-12-09T12:04:26.978Z,27.43
2022-12-09T12:06:59.864Z,26.57
2022-12-09T12:09:38.229Z,27.27
2022-12-09T12:12:17.581Z,28.07
2022-12-09T12:14:56.640Z,21.57
2022-12-09T12:17:33.722Z,17.67
2022-12-09T12:20:06.236Z,19.90
2022-12-09T12:23:25.047Z,17.93
2022-12-09T12:26:13.244Z,18.80
2022-12-09T12:29:16.976Z,13.70
2022-12-09T12:32:23.199Z,14.40
2022-12-09T12:35:18.840Z,13.10
2022-12-09T12:38:03.931Z,14.00
2022-12-09T12:40:44.741Z,14.70
2022-12-09T12:43:45.351Z,16.10
2022-12-09T12:46:29.225Z,15.70
2022-12-09T12:49:28.093Z,18.83
2022-12-09T12:52:39.392Z,15.87
2022-12-09T12:55:18.017Z,13.77
2022-12-09T12:57:58.174Z,16.27
2022-12-09T13:00:49.215Z,16.80
2022-12-09T13:03:29.526Z,16.80
2022-12-09T13:06:00.932Z,22.43
2022-12-09T13:08:44.427Z,23.47
2022-12-09T13:11:25.007Z,26.87
2022-12-09T13:14:00.563Z,26.23
2022-12-09T13:16:42.833Z,26.23
2022-12-09T13:19:18.401Z,27.40
2022-12-09T13:21:50.670Z,25.47
2022-12-09T13:24:28.202Z,28.73
2022-12-09T13:27:06.671Z,28.10
2022-12-09T13:29:46.973Z,29.50
2022-12-09T13:32:37.849Z,27.93
2022-12-09T13:35:17.203Z,27.63
2022-12-09T13:38:06.206Z,26.93
2022-12-09T13:40:39.224Z,26.07
2022-12-09T13:43:13.505Z,28.20
2022-12-09T13:45:57.877Z,28.30
2022-12-09T13:48:47.987Z,42.93
2022-12-09T13:51:21.964Z,29.70
2022-12-09T13:54:03.289Z,30.60
2022-12-09T13:56:36.326Z,27.47
2022-12-09T13:59:42.248Z,25.97
2022-12-09T14:02:17.102Z,32.33
2022-12-09T14:04:54.093Z,35.87
2022-12-09T14:07:35.712Z,33.73
2022-12-09T14:10:11.116Z,38.60
2022-12-09T14:13:27.278Z,28.57
2022-12-09T14:16:35.573Z,29.33
2022-12-09T14:19:41.684Z,26.83
2022-12-09T14:22:39.916Z,26.70
2022-12-09T14:25:58.315Z,27.03
2022-12-09T14:28:52.487Z,26.43
2022-12-09T14:31:59.237Z,26.20
2022-12-09T14:34:44.559Z,24.67
2022-12-09T14:37:52.524Z,25.00
2022-12-09T14:40:51.564Z,25.70
2022-12-09T14:43:54.397Z,26.43
2022-12-09T14:46:32.302Z,24.57
2022-12-09T14:49:15.216Z,26.50
2022-12-09T14:51:54.274Z,27.67
2022-12-09T14:54:35.335Z,29.83
2022-12-09T14:57:16.057Z,30.50
2022-12-09T14:59:52.805Z,29.47
2022-12-09T15:02:39.237Z,27.47
2022-12-09T15:05:19.587Z,28.97
2022-12-09T15:07:50.742Z,27.07
2022-12-09T15:10:32.070Z,28.70
2022-12-09T15:13:03.384Z,29.47
2022-12-09T15:15:39.165Z,29.47
2022-12-09T15:18:17.601Z,29.17
2022-12-09T15:20:59.499Z,27.67
2022-12-09T15:23:37.690Z,27.33
2022-12-09T15:26:08.463Z,27.17
2022-12-09T15:28:41.187Z,26.33
2022-12-09T15:31:21.012Z,29.67
2022-12-09T15:33:51.987Z,29.80
2022-12-09T15:36:25.990Z,30.33
2022-12-09T15:39:08.901Z,28.60
2022-12-09T15:42:02.238Z,28.97
2022-12-09T15:44:38.053Z,28.10
2022-12-09T15:47:10.809Z,29.23
2022-12-09T15:49:46.491Z,27.47
2022-12-09T15:52:18.906Z,25.80
2022-12-09T15:54:51.087Z,29.80
2022-12-09T15:57:23.697Z,27.83
2022-12-09T15:59:58.650Z,35.13
2022-12-09T16:02:36.814Z,36.13
2022-12-09T16:05:15.644Z,36.30
2022-12-09T16:07:58.701Z,36.63
2022-12-09T16:10:32.199Z,40.70
2022-12-09T16:13:16.489Z,40.90
2022-12-09T16:15:58.733Z,43.60
2022-12-09T16:18:36.418Z,40.70
2022-12-09T16:21:39.610Z,44.47
2022-12-09T16:24:13.301Z,52.03
2022-12-09T16:26:48.891Z,48.17
2022-12-09T16:29:24.443Z,42.70
2022-12-09T16:32:21.653Z,47.27
2022-12-09T16:34:56.510Z,42.70
2022-12-09T16:37:33.087Z,42.87
2022-12-09T16:40:02.404Z,40.00
2022-12-09T16:42:40.755Z,41.13
2022-12-09T16:45:28.821Z,45.37
2022-12-09T16:48:00.368Z,51.33
2022-12-09T16:50:39.243Z,45.63
2022-12-09T16:53:15.099Z,42.03
2022-12-09T16:55:51.866Z,41.73
2022-12-09T16:58:24.216Z,46.43
2022-12-09T17:00:54.428Z,38.57
2022-12-09T17:03:43.734Z,40.13
2022-12-09T17:06:16.992Z,40.30
2022-12-09T17:08:51.709Z,40.50
2022-12-09T17:11:30.479Z,44.30
2022-12-09T17:14:03.328Z,40.50
2022-12-09T17:16:38.364Z,39.83
2022-12-09T17:19:14.580Z,40.87
2022-12-09T17:21:57.215Z,41.83
2022-12-09T17:24:28.783Z,40.80
2022-12-09T17:27:05.424Z,38.20
2022-12-09T17:29:35.783Z,40.30
2022-12-09T17:32:07.112Z,45.83
2022-12-09T17:34:37.805Z,36.60
2022-12-09T17:37:18.341Z,39.27
2022-12-09T17:39:55.698Z,36.70
2022-12-09T17:42:32.710Z,36.43
2022-12-09T17:45:06.032Z,36.67
2022-12-09T17:47:35.218Z,37.53
2022-12-09T17:50:06.938Z,37.90
2022-12-09T17:52:52.775Z,37.20
2022-12-09T17:55:31.345Z,36.33
2022-12-09T17:58:04.342Z,38.87
2022-12-09T18:00:35.297Z,38.47
2022-12-09T18:03:06.565Z,38.13
2022-12-09T18:05:40.496Z,38.87
2022-12-09T18:08:12.460Z,39.70
2022-12-09T18:10:46.803Z,41.53
2022-12-09T18:13:22.203Z,41.87
2022-12-09T18:15:54.393Z,40.83
2022-12-09T18:18:24.885Z,40.27
2022-12-09T18:21:02.827Z,41.33
2022-12-09T18:23:41.390Z,42.63
2022-12-09T18:26:14.592Z,38.10
2022-12-09T18:28:43.406Z,39.63
2022-12-09T18:31:15.616Z,39.20
2022-12-09T18:33:44.797Z,40.97
2022-12-09T18:36:17.036Z,37.57
2022-12-09T18:38:48.260Z,38.87
2022-12-09T18:41:20.228Z,38.97
2022-12-09T18:43:52.203Z,39.30
2022-12-09T18:46:25.910Z,37.93
2022-12-09T18:49:03.262Z,39.40
2022-12-09T18:51:35.432Z,36.57
2022-12-09T18:54:19.232Z,37.93
2022-12-09T18:57:01.664Z,37.60
2022-12-09T18:59:37.125Z,42.63
2022-12-09T19:02:09.155Z,48.70
2022-12-09T19:05:09.862Z,45.70
2022-12-09T19:07:41.537Z,41.87
2022-12-09T19:10:14.716Z,38.47
2022-12-09T19:12:48.325Z,40.60
2022-12-09T19:15:32.109Z,41.57
2022-12-09T19:18:09.942Z,40.87
2022-12-09T19:20:41.932Z,40.77
2022-12-09T19:23:28.955Z,38.83
2022-12-09T19:26:13.439Z,38.70
2022-12-09T19:28:56.509Z,38.20
2022-12-09T19:31:32.965Z,40.33
2022-12-09T19:34:13.167Z,38.73
2022-12-09T19:36:45.815Z,38.33
2022-12-09T19:39:21.854Z,40.10
2022-12-09T19:42:04.536Z,35.10
2022-12-09T19:45:00.323Z,39.60
2022-12-09T19:47:31.533Z,40.67
2022-12-09T19:50:07.583Z,43.17
2022-12-09T19:52:41.055Z,42.73
2022-12-09T19:55:16.481Z,40.40
2022-12-09T19:57:49.362Z,42.27
2022-12-09T20:00:22.779Z,39.13
2022-12-09T20:02:55.583Z,41.27
2022-12-09T20:05:39.755Z,41.80
2022-12-09T20:08:22.834Z,41.53
2022-12-09T20:10:57.670Z,37.77
2022-12-09T20:13:38.681Z,39.53
2022-12-09T20:16:21.775Z,41.10
2022-12-09T20:18:57.941Z,39.57
2022-12-09T20:21:34.970Z,39.67
2022-12-09T20:24:05.094Z,39.23
2022-12-09T20:26:39.234Z,38.50
2022-12-09T20:32:09.923Z,36.10
2022-12-09T20:34:41.967Z,38.57
2022-12-09T20:37:13.971Z,36.73
2022-12-09T20:39:48.719Z,40.03
2022-12-09T20:42:20.015Z,37.17
2022-12-09T20:45:24.721Z,38.07
2022-12-09T20:47:57.674Z,36.50
2022-12-09T20:50:27.735Z,36.57
2022-12-09T20:53:00.011Z,34.30
2022-12-09T20:55:33.344Z,36.73
2022-12-09T20:58:10.591Z,34.97
2022-12-09T21:00:44.088Z,36.10
2022-12-09T21:03:16.760Z,31.03
2022-12-09T21:05:56.028Z,32.63
2022-12-09T21:08:31.990Z,32.57
2022-12-09T21:11:15.865Z,34.17
2022-12-09T21:13:50.605Z,33.03
2022-12-09T21:16:29.412Z,34.87
2022-12-09T21:19:06.646Z,30.37
2022-12-09T21:21:38.159Z,32.07
2022-12-09T21:24:08.882Z,36.50
2022-12-09T21:26:45.056Z,33.07
2022-12-09T21:29:20.992Z,30.57
2022-12-09T21:31:57.451Z,32.33
2022-12-09T21:34:28.018Z,36.50
2022-12-09T21:37:08.740Z,36.37
2022-12-09T21:39:44.240Z,34.93
2022-12-09T21:42:14.010Z,35.40
2022-12-09T21:44:43.953Z,35.27
2022-12-09T21:47:20.290Z,36.77
2022-12-09T21:49:59.733Z,40.17
2022-12-09T21:52:34.356Z,38.07
2022-12-09T21:55:08.604Z,38.47
2022-12-09T21:57:39.858Z,38.70
2022-12-09T22:00:18.483Z,37.37
2022-12-09T22:02:58.342Z,36.17
2022-12-09T22:05:30.740Z,36.90
2022-12-09T22:07:59.889Z,36.97
2022-12-09T22:10:36.445Z,33.60
2022-12-09T22:13:13.731Z,31.70
2022-12-09T22:15:46.740Z,35.80
2022-12-09T22:18:17.277Z,36.23
2022-12-09T22:21:23.029Z,35.50
2022-12-09T22:23:43.858Z,33.00
2022-12-09T22:26:15.195Z,34.87
2022-12-09T22:28:48.222Z,35.20
2022-12-09T22:31:20.845Z,35.43
2022-12-09T22:33:57.488Z,30.10
2022-12-09T22:36:37.527Z,33.70
2022-12-09T22:39:11.311Z,32.20
2022-12-09T22:41:45.911Z,34.80
2022-12-09T22:44:17.613Z,34.93
2022-12-09T22:46:51.977Z,35.23
2022-12-09T22:49:24.856Z,33.13
2022-12-09T22:52:03.820Z,32.80
2022-12-09T22:54:39.944Z,30.53
2022-12-09T22:57:09.288Z,31.13
2022-12-09T22:59:48.685Z,34.23
2022-12-09T23:02:21.311Z,35.97
2022-12-09T23:04:54.634Z,32.43
2022-12-09T23:07:23.768Z,35.67
2022-12-09T23:09:52.962Z,31.50
2022-12-09T23:12:25.466Z,36.10
2022-12-09T23:14:54.902Z,32.17
2022-12-09T23:17:24.566Z,34.93
2022-12-09T23:19:56.480Z,33.73
2022-12-09T23:22:29.882Z,36.20
2022-12-09T23:24:59.065Z,33.30
2022-12-09T23:27:33.534Z,35.20
2022-12-09T23:30:02.307Z,30.90
2022-12-09T23:32:31.220Z,32.93
2022-12-09T23:35:07.801Z,33.53
2022-12-09T23:37:39.629Z,32.73
2022-12-09T23:40:13.081Z,31.30
2022-12-09T23:42:44.360Z,34.97
2022-12-09T23:45:15.524Z,35.07
2022-12-09T23:47:44.100Z,34.03
2022-12-09T23:50:14.326Z,34.97
2022-12-09T23:52:42.690Z,36.83
2022-12-09T23:55:13.416Z,36.20
2022-12-09T23:57:41.989Z,32.30
